createdAt,value
2019-04-22T00:02:13.809Z,13.98
2019-04-22T00:08:03.173Z,12.43
2019-04-22T00:13:25.998Z,12.67
2019-04-22T00:18:56.299Z,12.73
2019-04-22T00:24:01.202Z,12.23
2019-04-22T00:34:42.691Z,11.20
2019-04-22T00:39:58.889Z,11.27
2019-04-22T00:45:41.812Z,11.17
2019-04-22T00:50:51.504Z,10.38
2019-04-22T01:01:31.831Z,10.97
2019-04-22T01:06:51.330Z,11.57
2019-04-22T01:12:13.637Z,12.00
2019-04-22T01:17:36.352Z,10.67
2019-04-22T01:22:52.141Z,11.43
2019-04-22T01:28:01.983Z,10.43
2019-04-22T01:33:16.056Z,10.27
2019-04-22T01:38:51.191Z,10.17
2019-04-22T01:44:21.556Z,10.93
2019-04-22T01:49:33.927Z,10.13
2019-04-22T01:54:54.619Z,11.07
2019-04-22T02:00:06.806Z,10.40
2019-04-22T02:05:35.786Z,11.08
2019-04-22T02:11:02.338Z,10.25
2019-04-22T02:16:23.112Z,10.87
2019-04-22T02:21:38.218Z,10.70
2019-04-22T02:26:56.794Z,10.23
2019-04-22T02:32:43.944Z,10.13
2019-04-22T02:37:35.342Z,10.20
2019-04-22T02:43:12.662Z,10.27
2019-04-22T02:54:15.143Z,9.63
2019-04-22T02:59:12.446Z,9.45
2019-04-22T03:04:37.479Z,10.70
2019-04-22T03:09:50.743Z,9.47
2019-04-22T03:20:24.806Z,8.87
2019-04-22T03:31:40.336Z,9.77
2019-04-22T03:42:05.658Z,10.53
2019-04-22T03:47:32.075Z,9.47
2019-04-22T03:52:39.120Z,8.20
2019-04-22T04:24:59.927Z,6.70
2019-04-22T04:40:46.157Z,6.42
2019-04-22T04:46:06.124Z,6.60
2019-04-22T04:56:46.617Z,5.70
2019-04-22T05:02:17.418Z,6.07
2019-04-22T05:18:08.674Z,5.70
2019-04-22T05:28:44.957Z,5.57
2019-04-22T05:34:04.356Z,6.00
2019-04-22T05:39:37.026Z,4.33
2019-04-22T05:44:41.127Z,5.67
2019-04-22T05:50:02.241Z,4.93
2019-04-22T05:55:26.818Z,4.60
2019-04-22T06:01:13.110Z,4.50
2019-04-22T06:06:07.789Z,4.00
2019-04-22T06:11:25.655Z,4.40
2019-04-22T06:16:45.783Z,4.53
2019-04-22T06:22:12.834Z,4.40
2019-04-22T06:27:31.009Z,4.27
2019-04-22T06:32:47.299Z,4.17
2019-04-22T06:38:28.214Z,3.70
2019-04-22T06:43:29.594Z,3.77
2019-04-22T06:48:48.961Z,4.20
2019-04-22T06:54:07.297Z,3.93
2019-04-22T06:59:34.414Z,4.03
2019-04-22T07:04:55.148Z,3.70
2019-04-22T07:10:23.217Z,3.63
2019-04-22T07:20:57.858Z,4.13
2019-04-22T07:31:41.125Z,3.17
2019-04-22T07:37:18.211Z,3.80
2019-04-22T07:42:19.188Z,3.90
2019-04-22T07:52:51.459Z,3.50
2019-04-22T07:58:18.591Z,3.70
2019-04-22T08:03:49.974Z,3.87
2019-04-22T08:09:01.838Z,3.33
2019-04-22T08:14:14.209Z,3.80
2019-04-22T08:19:35.467Z,3.43
2019-04-22T08:24:56.138Z,4.30
2019-04-22T08:30:20.375Z,4.00
2019-04-22T08:35:52.270Z,3.47
2019-04-22T08:46:40.425Z,3.87
2019-04-22T08:52:01.330Z,3.77
2019-04-22T08:57:31.864Z,4.10
2019-04-22T09:02:46.772Z,4.10
2019-04-22T09:08:09.355Z,3.93
2019-04-22T09:13:26.371Z,4.37
2019-04-22T09:18:59.596Z,3.97
2019-04-22T09:24:06.835Z,4.10
2019-04-22T09:29:26.994Z,4.00
2019-04-22T09:34:56.281Z,4.33
2019-04-22T09:40:11.899Z,4.70
2019-04-22T09:45:21.615Z,4.40
2019-04-22T09:56:04.003Z,4.37
2019-04-22T10:06:40.578Z,4.33
2019-04-22T10:12:02.569Z,5.10
2019-04-22T10:17:26.179Z,4.63
2019-04-22T10:28:14.732Z,4.97
2019-04-22T10:33:25.803Z,4.30
2019-04-22T10:38:26.285Z,4.57
2019-04-22T10:43:45.385Z,4.40
2019-04-22T10:49:04.291Z,4.07
2019-04-22T10:54:23.341Z,3.70
2019-04-22T10:59:42.668Z,4.30
2019-04-22T11:05:02.052Z,3.93
2019-04-22T11:10:41.218Z,3.70
2019-04-22T11:15:42.511Z,4.07
2019-04-22T11:21:01.921Z,4.50
2019-04-22T11:26:21.915Z,3.83
2019-04-22T11:31:42.414Z,3.60
2019-04-22T11:37:01.120Z,3.53
2019-04-22T11:42:20.440Z,3.27
2019-04-22T11:47:39.374Z,3.30
2019-04-22T11:52:58.604Z,3.40
2019-04-22T11:58:17.274Z,3.50
2019-04-22T12:03:35.970Z,3.37
2019-04-22T12:08:54.591Z,3.67
2019-04-22T12:14:13.959Z,3.37
2019-04-22T12:19:33.478Z,3.30
2019-04-22T12:24:54.403Z,3.70
2019-04-22T12:30:14.823Z,3.12
2019-04-22T12:35:34.583Z,3.20
2019-04-22T12:41:00.252Z,2.97
2019-04-22T12:46:16.330Z,2.67
2019-04-22T12:51:36.645Z,2.83
2019-04-22T12:56:55.751Z,3.50
2019-04-22T13:02:15.486Z,3.63
2019-04-22T13:07:34.096Z,3.10
2019-04-22T13:12:55.125Z,3.97
2019-04-22T13:18:26.169Z,3.53
2019-04-22T13:23:34.121Z,3.53
2019-04-22T13:28:52.596Z,3.53
2019-04-22T13:34:24.004Z,3.47
2019-04-22T13:39:34.900Z,2.80
2019-04-22T13:44:53.615Z,3.30
2019-04-22T13:50:49.902Z,3.05
2019-04-22T13:55:56.617Z,2.90
2019-04-22T14:00:56.621Z,3.03
2019-04-22T14:06:16.443Z,3.27
2019-04-22T14:11:43.906Z,3.17
2019-04-22T14:16:55.533Z,2.90
2019-04-22T14:22:14.078Z,3.00
2019-04-22T14:27:46.179Z,3.13
2019-04-22T14:32:54.105Z,2.57
2019-04-22T14:38:14.098Z,2.90
2019-04-22T14:44:02.343Z,2.70
2019-04-22T14:49:19.491Z,2.80
2019-04-22T14:54:26.816Z,2.70
2019-04-22T14:59:33.565Z,3.10
2019-04-22T15:04:52.281Z,2.87
2019-04-22T15:10:11.407Z,3.00
2019-04-22T15:15:51.111Z,2.70
2019-04-22T15:21:11.015Z,2.63
2019-04-22T15:26:30.663Z,2.40
2019-04-22T15:31:49.493Z,2.70
2019-04-22T15:37:08.420Z,2.43
2019-04-22T15:42:30.725Z,2.07
2019-04-22T15:47:48.229Z,2.10
2019-04-22T15:53:07.712Z,2.10
2019-04-22T15:58:28.038Z,2.27
2019-04-22T16:03:47.108Z,1.93
2019-04-22T16:09:11.056Z,2.30
2019-04-22T16:14:38.896Z,1.63
2019-04-22T16:19:50.927Z,1.97
2019-04-22T16:25:20.006Z,1.93
2019-04-22T16:30:39.484Z,1.70
2019-04-22T16:35:58.753Z,2.10
2019-04-22T16:41:18.825Z,2.20
2019-04-22T16:46:37.739Z,2.07
2019-04-22T16:51:56.354Z,1.77
2019-04-22T16:57:15.804Z,2.10
2019-04-22T17:02:46.505Z,2.03
2019-04-22T17:08:04.146Z,2.00
2019-04-22T17:13:26.861Z,1.93
2019-04-22T17:18:43.565Z,2.00
2019-04-22T17:24:03.565Z,2.20
2019-04-22T17:29:22.795Z,1.90
2019-04-22T17:34:41.481Z,1.90
2019-04-22T17:40:14.695Z,1.80
2019-04-22T17:45:47.703Z,1.70
2019-04-22T17:51:16.593Z,1.97
2019-04-22T17:56:27.930Z,1.83
2019-04-22T18:01:43.936Z,1.67
2019-04-22T18:07:13.364Z,1.80
2019-04-22T18:12:35.460Z,1.90
2019-04-22T18:17:55.557Z,2.13
2019-04-22T18:22:59.608Z,2.00
2019-04-22T18:28:30.316Z,2.23
2019-04-22T18:33:46.484Z,2.80
2019-04-22T18:39:16.284Z,2.30
2019-04-22T18:44:27.227Z,2.40
2019-04-22T18:49:47.605Z,2.30
2019-04-22T18:55:28.087Z,3.10
2019-04-22T19:00:41.849Z,2.60
2019-04-22T19:06:31.932Z,2.73
2019-04-22T19:11:51.719Z,2.40
2019-04-22T19:17:12.170Z,2.87
2019-04-22T19:22:25.113Z,2.63
2019-04-22T19:27:40.495Z,2.53
2019-04-22T19:33:06.194Z,2.90
2019-04-22T19:38:15.515Z,2.70
2019-04-22T19:43:46.518Z,2.70
2019-04-22T19:49:13.620Z,2.53
2019-04-22T19:54:23.278Z,2.60
2019-04-22T19:59:45.417Z,2.53
2019-04-22T20:05:23.164Z,2.50
2019-04-22T20:10:30.022Z,2.00
2019-04-22T20:15:43.327Z,2.07
2019-04-22T20:21:19.397Z,2.07
2019-04-22T20:26:40.701Z,2.00
2019-04-22T20:31:59.178Z,2.10
2019-04-22T20:37:22.279Z,2.20
2019-04-22T20:42:45.173Z,2.30
2019-04-22T20:47:52.503Z,2.20
2019-04-22T20:53:25.472Z,1.97
2019-04-22T20:58:43.185Z,1.90
2019-04-22T21:03:47.048Z,1.90
2019-04-22T21:09:18.012Z,2.20
2019-04-22T21:14:32.438Z,2.10
2019-04-22T21:20:06.901Z,2.40
2019-04-22T21:25:14.085Z,2.40
2019-04-22T21:30:41.413Z,2.08
2019-04-22T21:36:10.241Z,2.20
2019-04-22T21:41:20.440Z,2.10
2019-04-22T21:46:42.298Z,3.67
2019-04-22T21:52:00.196Z,2.00
2019-04-22T21:57:48.900Z,2.00
2019-04-22T22:03:05.665Z,2.07
2019-04-22T22:08:27.329Z,2.15
2019-04-22T22:13:38.707Z,2.27
2019-04-22T22:19:04.009Z,2.30
2019-04-22T22:24:27.237Z,2.67
2019-04-22T22:29:57.129Z,2.20
2019-04-22T22:35:03.482Z,2.77
2019-04-22T22:40:09.265Z,2.15
2019-04-22T22:45:33.874Z,1.83
2019-04-22T22:51:06.608Z,2.52
2019-04-22T22:56:25.402Z,1.93
2019-04-22T23:01:45.440Z,1.60
2019-04-22T23:07:11.419Z,1.90
2019-04-22T23:17:29.420Z,1.83
2019-04-22T23:23:09.383Z,2.00
2019-04-22T23:28:22.705Z,2.03
2019-04-22T23:33:42.402Z,2.10
2019-04-22T23:39:10.840Z,2.17
2019-04-22T23:44:24.981Z,1.73
2019-04-22T23:49:42.630Z,1.90
2019-04-22T23:55:11.506Z,2.17
